Sunday, August 19, 2018, 1:55 PM EDT
Back to Local

KOXB, Ocean City Municipal Airport

Location: Berlin, MD, United States Lat: 38.317
Local Time: 1:55 PM EDT (17:55 GMT) Lon: -75.117
Time Zone: US/Eastern Elev: 13 ft

Show me the last for .
Show Decoded

2018-08-19 12:53 METAR KOXB 191653Z AUTO 13007KT 090V160 9SM FEW037 FEW048 SCT065 27/23 A2992 RMK
                 AO2 SLP131 T02670233 =
2018-08-19 11:53 METAR KOXB 191553Z AUTO 08007KT 9SM FEW024 FEW031 BKN045 26/23 A2992 RMK AO2
                 SLP131 T02610233 =
2018-08-19 11:06 METAR KOXB 191506Z AUTO 11006KT 9SM SCT019 SCT065 26/24 A2991 RMK AO2 T02610239
                 =
2018-08-19 10:53 METAR KOXB 191453Z AUTO 09005KT 8SM BKN021 26/23 A2991 RMK AO2 SLP128 T02560233
                 51014 =
2018-08-19 10:45 METAR KOXB 191445Z AUTO 09007KT 7SM SCT021 SCT037 26/24 A2991 RMK AO2 T02610239
                 =
2018-08-19 10:30 METAR KOXB 191430Z AUTO 11008KT 7SM BKN021 BKN028 BKN039 25/23 A2991 RMK AO2
                 T02500233 =
2018-08-19 09:53 METAR KOXB 191353Z AUTO 00000KT 10SM CLR 28/23 A2990 RMK AO2 SLP125 T02780228 =
2018-08-19 08:53 METAR KOXB 191253Z AUTO 31006KT 10SM CLR 27/24 A2989 RMK AO2 SLP120 T02670239 =
2018-08-19 07:53 METAR KOXB 191153Z AUTO 31004KT 8SM CLR 24/23 A2987 RMK AO2 SLP114 70003
                 T02390233 10239 20228 53015 =
2018-08-19 06:53 METAR KOXB 191053Z AUTO 30003KT 7SM CLR 23/23 A2986 RMK AO2 SLP110 T02330228 =
2018-08-19 05:53 METAR KOXB 190953Z AUTO 27004KT 10SM SCT023 23/23 A2984 RMK AO2 SLP103 T02330228
                 =
2018-08-19 04:53 METAR KOXB 190853Z AUTO 27005KT 10SM CLR 24/23 A2983 RMK AO2 SLP099 T02390228
                 58003 =
2018-08-19 03:53 METAR KOXB 190753Z AUTO 26007KT 10SM BKN075 24/23 A2983 RMK AO2 SLP102 T02390228
                 =
2018-08-19 02:53 METAR KOXB 190653Z AUTO 26005KT 10SM OVC080 23/23 A2984 RMK AO2 SLP105 T02330228
                 =
2018-08-19 01:53 METAR KOXB 190553Z AUTO 24004KT 10SM FEW075 23/22 A2984 RMK AO2 SLP103 60003
                 T02280217 10272 20228 56007 =
2018-08-19 00:53 METAR KOXB 190453Z AUTO 28005KT 10SM BKN070 BKN110 23/22 A2984 RMK AO2 SLP104
                 T02330222 403110233 =
2018-08-18 23:53 METAR KOXB 190353Z AUTO 28004KT 10SM BKN090 24/23 A2985 RMK AO2 RAE53 SLP108
                 P0002 T02390228 =
2018-08-18 22:53 METAR KOXB 190253Z AUTO 26008KT 10SM -RA FEW120 25/24 A2986 RMK AO2 RAB09 SLP110
                 P0001 60001 T02500239 53002 =
2018-08-18 21:53 METAR KOXB 190153Z AUTO 25009KT 10SM CLR 26/24 A2985 RMK AO2 LTG DSNT SW SLP109
                 T02560244 =
2018-08-18 20:53 METAR KOXB 190053Z AUTO 24009KT 10SM FEW110 27/24 A2984 RMK AO2 RAE44 SLP105
                 P0000 T02670244 =
2018-08-18 19:53 METAR KOXB 182353Z AUTO 24005KT 10SM -RA CLR 27/23 A2985 RMK AO2 RAB36 SLP108
                 P0000 60000 T02720233 10311 20272 53010 =
2018-08-18 18:53 METAR KOXB 182253Z AUTO 26004KT 10SM CLR 28/23 A2983 RMK AO2 SLP101 T02830228 =
2018-08-18 17:53 METAR KOXB 182153Z AUTO 26005KT 10SM CLR 29/22 A2983 RMK AO2 SLP101 T02890222 =
2018-08-18 16:53 METAR KOXB 182053Z AUTO 26006KT 10SM CLR 31/23 A2982 RMK AO2 SLP098 T03060233
                 56017 =
2018-08-18 15:53 METAR KOXB 181953Z AUTO 25009KT 10SM CLR 31/24 A2983 RMK AO2 SLP101 T03060239 =
2018-08-18 14:53 METAR KOXB 181853Z AUTO 26008KT 10SM CLR 30/23 A2986 RMK AO2 SLP110 T03000228 =

Support USWX by starting your Amazon purchase here.